sensor_id;sensor_type;location;lat;lon;timestamp;pressure;altitude;pressure_sealevel;temperature;humidity
51289;BME280;37372;52.294;5.152;2023-09-19T00:02:17;100556.56;;;13.00;100.00
51289;BME280;37372;52.294;5.152;2023-09-19T00:04:43;100560.47;;;13.04;100.00
51289;BME280;37372;52.294;5.152;2023-09-19T00:07:08;100561.31;;;13.05;100.00
51289;BME280;37372;52.294;5.152;2023-09-19T00:09:34;100569.31;;;13.06;100.00
51289;BME280;37372;52.294;5.152;2023-09-19T00:12:05;100566.34;;;13.08;100.00
51289;BME280;37372;52.294;5.152;2023-09-19T00:14:30;100562.16;;;13.05;100.00
51289;BME280;37372;52.294;5.152;2023-09-19T00:16:59;100574.25;;;13.04;100.00
51289;BME280;37372;52.294;5.152;2023-09-19T00:19:26;100578.41;;;13.07;100.00
51289;BME280;37372;52.294;5.152;2023-09-19T00:21:51;100572.66;;;13.08;100.00
51289;BME280;37372;52.294;5.152;2023-09-19T00:24:18;100571.31;;;13.11;100.00
51289;BME280;37372;52.294;5.152;2023-09-19T00:26:43;100580.50;;;13.16;100.00
51289;BME280;37372;52.294;5.152;2023-09-19T00:29:09;100577.47;;;13.18;100.00
51289;BME280;37372;52.294;5.152;2023-09-19T00:31:34;100582.25;;;13.22;100.00
51289;BME280;37372;52.294;5.152;2023-09-19T00:34:02;100578.66;;;13.22;100.00
51289;BME280;37372;52.294;5.152;2023-09-19T00:36:29;100579.13;;;13.19;100.00
51289;BME280;37372;52.294;5.152;2023-09-19T00:38:55;100585.16;;;13.16;100.00
51289;BME280;37372;52.294;5.152;2023-09-19T00:41:20;100583.44;;;13.10;100.00
51289;BME280;37372;52.294;5.152;2023-09-19T00:43:46;100589.00;;;13.15;100.00
51289;BME280;37372;52.294;5.152;2023-09-19T00:46:18;100590.34;;;13.12;100.00
51289;BME280;37372;52.294;5.152;2023-09-19T00:48:43;100596.66;;;13.13;100.00
51289;BME280;37372;52.294;5.152;2023-09-19T00:51:09;100593.91;;;13.13;100.00
51289;BME280;37372;52.294;5.152;2023-09-19T00:53:35;100598.03;;;13.10;100.00
51289;BME280;37372;52.294;5.152;2023-09-19T00:56:02;100598.38;;;13.14;100.00
51289;BME280;37372;52.294;5.152;2023-09-19T00:58:28;100604.75;;;13.19;100.00
51289;BME280;37372;52.294;5.152;2023-09-19T01:00:58;100615.78;;;13.19;100.00
51289;BME280;37372;52.294;5.152;2023-09-19T01:03:24;100607.50;;;13.19;100.00
51289;BME280;37372;52.294;5.152;2023-09-19T01:05:49;100604.19;;;13.17;100.00
51289;BME280;37372;52.294;5.152;2023-09-19T01:08:15;100604.88;;;13.24;100.00
51289;BME280;37372;52.294;5.152;2023-09-19T01:10:48;100607.88;;;13.23;100.00
51289;BME280;37372;52.294;5.152;2023-09-19T01:13:31;100601.00;;;13.25;100.00
51289;BME280;37372;52.294;5.152;2023-09-19T01:18:52;100597.13;;;13.21;100.00
51289;BME280;37372;52.294;5.152;2023-09-19T01:21:37;100607.63;;;13.24;100.00
51289;BME280;37372;52.294;5.152;2023-09-19T01:30:14;100597.78;;;13.28;100.00
51289;BME280;37372;52.294;5.152;2023-09-19T01:32:39;100598.91;;;13.33;100.00
51289;BME280;37372;52.294;5.152;2023-09-19T01:35:07;100597.31;;;13.37;100.00
51289;BME280;37372;52.294;5.152;2023-09-19T01:37:37;100606.75;;;13.41;100.00
51289;BME280;37372;52.294;5.152;2023-09-19T01:40:08;100606.78;;;13.46;100.00
51289;BME280;37372;52.294;5.152;2023-09-19T01:42:58;100619.56;;;13.52;100.00
51289;BME280;37372;52.294;5.152;2023-09-19T01:45:43;100617.41;;;13.54;100.00
51289;BME280;37372;52.294;5.152;2023-09-19T01:48:32;100624.03;;;13.58;100.00
51289;BME280;37372;52.294;5.152;2023-09-19T01:51:06;100625.66;;;13.54;100.00
51289;BME280;37372;52.294;5.152;2023-09-19T01:53:47;100619.63;;;13.57;100.00
51289;BME280;37372;52.294;5.152;2023-09-19T01:56:22;100614.09;;;13.57;100.00
51289;BME280;37372;52.294;5.152;2023-09-19T01:58:53;100615.78;;;13.58;100.00
51289;BME280;37372;52.294;5.152;2023-09-19T02:01:22;100601.94;;;13.53;100.00
51289;BME280;37372;52.294;5.152;2023-09-19T02:03:50;100601.94;;;13.53;100.00
51289;BME280;37372;52.294;5.152;2023-09-19T02:06:16;100601.94;;;13.53;100.00
51289;BME280;37372;52.294;5.152;2023-09-19T02:08:43;100595.84;;;13.51;100.00
51289;BME280;37372;52.294;5.152;2023-09-19T02:11:10;100587.50;;;13.46;100.00
51289;BME280;37372;52.294;5.152;2023-09-19T02:13:36;100596.94;;;13.50;100.00
51289;BME280;37372;52.294;5.152;2023-09-19T02:16:01;100611.03;;;13.53;100.00
51289;BME280;37372;52.294;5.152;2023-09-19T02:18:29;100606.09;;;13.55;100.00
51289;BME280;37372;52.294;5.152;2023-09-19T02:20:55;100608.34;;;13.59;100.00
51289;BME280;37372;52.294;5.152;2023-09-19T02:23:21;100616.94;;;13.62;100.00
51289;BME280;37372;52.294;5.152;2023-09-19T02:25:56;100610.91;;;13.65;100.00
51289;BME280;37372;52.294;5.152;2023-09-19T02:28:32;100616.66;;;13.64;100.00
51289;BME280;37372;52.294;5.152;2023-09-19T02:30:58;100618.59;;;13.63;100.00
51289;BME280;37372;52.294;5.152;2023-09-19T02:33:24;100617.47;;;13.59;100.00
51289;BME280;37372;52.294;5.152;2023-09-19T02:35:49;100619.16;;;13.65;100.00
51289;BME280;37372;52.294;5.152;2023-09-19T02:38:19;100623.91;;;13.70;100.00
51289;BME280;37372;52.294;5.152;2023-09-19T02:40:49;100623.41;;;13.73;100.00
51289;BME280;37372;52.294;5.152;2023-09-19T02:43:15;100632.25;;;13.75;100.00
51289;BME280;37372;52.294;5.152;2023-09-19T02:45:40;100634.75;;;13.76;100.00
51289;BME280;37372;52.294;5.152;2023-09-19T02:48:06;100634.44;;;13.73;100.00
51289;BME280;37372;52.294;5.152;2023-09-19T02:50:33;100635.00;;;13.75;100.00
51289;BME280;37372;52.294;5.152;2023-09-19T02:52:59;100635.56;;;13.77;100.00
51289;BME280;37372;52.294;5.152;2023-09-19T02:55:24;100635.56;;;13.77;100.00
51289;BME280;37372;52.294;5.152;2023-09-19T02:57:53;100620.69;;;13.78;100.00
51289;BME280;37372;52.294;5.152;2023-09-19T03:00:20;100621.75;;;13.72;100.00
51289;BME280;37372;52.294;5.152;2023-09-19T03:02:46;100618.09;;;13.66;100.00
51289;BME280;37372;52.294;5.152;2023-09-19T03:05:12;100615.00;;;13.63;100.00
51289;BME280;37372;52.294;5.152;2023-09-19T03:07:37;100613.84;;;13.59;100.00
51289;BME280;37372;52.294;5.152;2023-09-19T03:10:04;100614.72;;;13.59;100.00
51289;BME280;37372;52.294;5.152;2023-09-19T03:12:30;100599.56;;;13.62;100.00
51289;BME280;37372;52.294;5.152;2023-09-19T03:14:56;100614.72;;;13.59;100.00
51289;BME280;37372;52.294;5.152;2023-09-19T03:17:22;100612.19;;;13.58;100.00
51289;BME280;37372;52.294;5.152;2023-09-19T03:19:47;100609.75;;;13.61;100.00
51289;BME280;37372;52.294;5.152;2023-09-19T03:22:14;100609.75;;;13.61;100.00
51289;BME280;37372;52.294;5.152;2023-09-19T03:24:39;100605.91;;;13.62;100.00
51289;BME280;37372;52.294;5.152;2023-09-19T03:27:05;100595.41;;;13.59;100.00
51289;BME280;37372;52.294;5.152;2023-09-19T03:29:30;100599.19;;;13.53;100.00
51289;BME280;37372;52.294;5.152;2023-09-19T03:31:55;100605.53;;;13.53;100.00
51289;BME280;37372;52.294;5.152;2023-09-19T03:34:21;100604.94;;;13.51;100.00
51289;BME280;37372;52.294;5.152;2023-09-19T03:36:46;100602.44;;;13.50;100.00
51289;BME280;37372;52.294;5.152;2023-09-19T03:39:11;100600.78;;;13.49;100.00
51289;BME280;37372;52.294;5.152;2023-09-19T03:41:37;100606.78;;;13.46;100.00
51289;BME280;37372;52.294;5.152;2023-09-19T03:44:02;100612.75;;;13.38;100.00
51289;BME280;37372;52.294;5.152;2023-09-19T03:46:28;100603.41;;;13.39;100.00
51289;BME280;37372;52.294;5.152;2023-09-19T03:48:54;100610.00;;;13.38;100.00
51289;BME280;37372;52.294;5.152;2023-09-19T03:51:20;100618.00;;;13.39;100.00
51289;BME280;37372;52.294;5.152;2023-09-19T03:53:45;100616.13;;;13.40;100.00
51289;BME280;37372;52.294;5.152;2023-09-19T03:56:10;100619.16;;;13.43;100.00
51289;BME280;37372;52.294;5.152;2023-09-19T03:58:36;100613.91;;;13.42;100.00
51289;BME280;37372;52.294;5.152;2023-09-19T04:01:05;100619.16;;;13.43;100.00
51289;BME280;37372;52.294;5.152;2023-09-19T04:03:32;100635.22;;;13.46;100.00
51289;BME280;37372;52.294;5.152;2023-09-19T04:06:12;100627.19;;;13.45;100.00
51289;BME280;37372;52.294;5.152;2023-09-19T04:08:37;100627.50;;;13.48;100.00
51289;BME280;37372;52.294;5.152;2023-09-19T04:11:02;100642.81;;;13.39;100.00
51289;BME280;37372;52.294;5.152;2023-09-19T04:13:28;100641.09;;;13.33;100.00
51289;BME280;37372;52.294;5.152;2023-09-19T04:15:53;100645.91;;;13.26;100.00
51289;BME280;37372;52.294;5.152;2023-09-19T04:18:19;100652.22;;;13.21;100.00
51289;BME280;37372;52.294;5.152;2023-09-19T04:20:49;100648.25;;;13.17;100.00
51289;BME280;37372;52.294;5.152;2023-09-19T04:23:15;100652.94;;;13.17;100.00
51289;BME280;37372;52.294;5.152;2023-09-19T04:25:41;100649.84;;;13.13;100.00
51289;BME280;37372;52.294;5.152;2023-09-19T04:28:06;100653.44;;;13.14;100.00
51289;BME280;37372;52.294;5.152;2023-09-19T04:30:32;100659.53;;;13.16;100.00
51289;BME280;37372;52.294;5.152;2023-09-19T04:32:57;100667.22;;;13.14;100.00
51289;BME280;37372;52.294;5.152;2023-09-19T04:35:22;100656.78;;;13.16;100.00
51289;BME280;37372;52.294;5.152;2023-09-19T04:37:48;100658.44;;;13.17;100.00
51289;BME280;37372;52.294;5.152;2023-09-19T04:40:15;100659.53;;;13.16;100.00
51289;BME280;37372;52.294;5.152;2023-09-19T04:42:45;100659.84;;;13.19;100.00
51289;BME280;37372;52.294;5.152;2023-09-19T04:45:11;100654.59;;;13.18;100.00
51289;BME280;37372;52.294;5.152;2023-09-19T04:47:37;100658.69;;;13.15;100.00
51289;BME280;37372;52.294;5.152;2023-09-19T04:50:07;100652.84;;;13.12;100.00
51289;BME280;37372;52.294;5.152;2023-09-19T04:52:33;100655.34;;;13.13;100.00
51289;BME280;37372;52.294;5.152;2023-09-19T04:54:58;100659.28;;;13.17;100.00
51289;BME280;37372;52.294;5.152;2023-09-19T04:57:24;100660.22;;;13.23;100.00
51289;BME280;37372;52.294;5.152;2023-09-19T04:59:51;100669.66;;;13.27;100.00
51289;BME280;37372;52.294;5.152;2023-09-19T05:02:16;100674.06;;;13.28;100.00
51289;BME280;37372;52.294;5.152;2023-09-19T05:04:42;100667.22;;;13.31;100.00
51289;BME280;37372;52.294;5.152;2023-09-19T05:07:08;100665.28;;;13.31;100.00
51289;BME280;37372;52.294;5.152;2023-09-19T05:09:33;100666.13;;;13.32;100.00
51289;BME280;37372;52.294;5.152;2023-09-19T05:12:00;100668.31;;;13.30;100.00
51289;BME280;37372;52.294;5.152;2023-09-19T05:14:25;100667.84;;;13.38;100.00
51289;BME280;37372;52.294;5.152;2023-09-19T05:16:51;100665.09;;;13.38;100.00
51289;BME280;37372;52.294;5.152;2023-09-19T05:19:16;100673.91;;;13.35;100.00
51289;BME280;37372;52.294;5.152;2023-09-19T05:21:42;100670.88;;;13.36;100.00
51289;BME280;37372;52.294;5.152;2023-09-19T05:24:07;100673.06;;;13.34;100.00
51289;BME280;37372;52.294;5.152;2023-09-19T05:26:33;100656.19;;;13.31;100.00
51289;BME280;37372;52.294;5.152;2023-09-19T05:28:58;100664.97;;;13.27;100.00
51289;BME280;37372;52.294;5.152;2023-09-19T05:31:23;100665.47;;;13.24;100.00
51289;BME280;37372;52.294;5.152;2023-09-19T05:33:50;100673.72;;;13.24;100.00
51289;BME280;37372;52.294;5.152;2023-09-19T05:36:16;100675.41;;;13.25;100.00
51289;BME280;37372;52.294;5.152;2023-09-19T05:38:42;100679.75;;;13.21;100.00
51289;BME280;37372;52.294;5.152;2023-09-19T05:41:09;100678.09;;;13.20;100.00
51289;BME280;37372;52.294;5.152;2023-09-19T05:43:39;100679.97;;;13.20;100.00
51289;BME280;37372;52.294;5.152;2023-09-19T05:46:06;100687.75;;;13.23;100.00
51289;BME280;37372;52.294;5.152;2023-09-19T05:48:32;100694.19;;;13.28;100.00
51289;BME280;37372;52.294;5.152;2023-09-19T05:50:58;100681.16;;;13.24;100.00
51289;BME280;37372;52.294;5.152;2023-09-19T05:53:23;100689.44;;;13.24;100.00
51289;BME280;37372;52.294;5.152;2023-09-19T05:55:48;100682.00;;;13.24;100.00
51289;BME280;37372;52.294;5.152;2023-09-19T05:58:14;100687.19;;;13.21;100.00
51289;BME280;37372;52.294;5.152;2023-09-19T06:00:42;100685.97;;;13.17;100.00
51289;BME280;37372;52.294;5.152;2023-09-19T06:03:09;100688.75;;;13.17;100.00
51289;BME280;37372;52.294;5.152;2023-09-19T06:05:35;100688.16;;;13.15;100.00
51289;BME280;37372;52.294;5.152;2023-09-19T06:08:00;100694.63;;;13.20;100.00
51289;BME280;37372;52.294;5.152;2023-09-19T06:10:26;100688.34;;;13.25;100.00
51289;BME280;37372;52.294;5.152;2023-09-19T06:12:53;100690.84;;;13.26;100.00
51289;BME280;37372;52.294;5.152;2023-09-19T06:15:20;100693.44;;;13.33;100.00
51289;BME280;37372;52.294;5.152;2023-09-19T06:17:49;100690.69;;;13.33;100.00
51289;BME280;37372;52.294;5.152;2023-09-19T06:20:15;100692.41;;;13.39;100.00
51289;BME280;37372;52.294;5.152;2023-09-19T06:22:42;100696.16;;;13.50;100.00
51289;BME280;37372;52.294;5.152;2023-09-19T06:25:09;100681.88;;;13.53;100.00
51289;BME280;37372;52.294;5.152;2023-09-19T06:27:38;100675.09;;;13.61;100.00
51289;BME280;37372;52.294;5.152;2023-09-19T06:30:04;100682.81;;;13.64;100.00
51289;BME280;37372;52.294;5.152;2023-09-19T06:32:29;100685.72;;;13.74;100.00
51289;BME280;37372;52.294;5.152;2023-09-19T06:34:55;100690.72;;;13.77;100.00
51289;BME280;37372;52.294;5.152;2023-09-19T06:37:21;100696.56;;;13.80;100.00
51289;BME280;37372;52.294;5.152;2023-09-19T06:39:47;100691.31;;;13.79;100.00
51289;BME280;37372;52.294;5.152;2023-09-19T06:42:14;100695.56;;;13.87;100.00
51289;BME280;37372;52.294;5.152;2023-09-19T06:44:42;100701.06;;;13.87;100.00
51289;BME280;37372;52.294;5.152;2023-09-19T06:47:08;100704.00;;;13.80;100.00
51289;BME280;37372;52.294;5.152;2023-09-19T06:49:34;100715.59;;;13.82;100.00
51289;BME280;37372;52.294;5.152;2023-09-19T06:52:00;100704.56;;;13.82;100.00
51289;BME280;37372;52.294;5.152;2023-09-19T06:54:26;100701.31;;;13.85;100.00
51289;BME280;37372;52.294;5.152;2023-09-19T06:56:55;100700.53;;;13.90;100.00
51289;BME280;37372;52.294;5.152;2023-09-19T06:59:20;100699.13;;;13.87;100.00
51289;BME280;37372;52.294;5.152;2023-09-19T07:01:46;100696.69;;;13.91;100.00
51289;BME280;37372;52.294;5.152;2023-09-19T07:04:12;100688.47;;;13.96;100.00
51289;BME280;37372;52.294;5.152;2023-09-19T07:06:38;100687.53;;;14.07;100.00
51289;BME280;37372;52.294;5.152;2023-09-19T07:09:03;100704.34;;;14.05;100.00
51289;BME280;37372;52.294;5.152;2023-09-19T07:11:29;100716.69;;;14.03;100.00
51289;BME280;37372;52.294;5.152;2023-09-19T07:13:56;100712.91;;;14.09;100.00
51289;BME280;37372;52.294;5.152;2023-09-19T07:16:22;100720.69;;;14.12;100.00
51289;BME280;37372;52.294;5.152;2023-09-19T07:18:55;100718.56;;;14.19;100.00
51289;BME280;37372;52.294;5.152;2023-09-19T07:21:22;100726.06;;;14.24;100.00
51289;BME280;37372;52.294;5.152;2023-09-19T07:23:48;100719.41;;;14.20;100.00
51289;BME280;37372;52.294;5.152;2023-09-19T07:26:13;100731.25;;;14.20;100.00
51289;BME280;37372;52.294;5.152;2023-09-19T07:28:39;100722.97;;;14.20;100.00
51289;BME280;37372;52.294;5.152;2023-09-19T07:31:04;100732.34;;;14.19;100.00
51289;BME280;37372;52.294;5.152;2023-09-19T07:33:32;100730.50;;;14.25;100.00
51289;BME280;37372;52.294;5.152;2023-09-19T07:35:57;100734.66;;;14.27;100.00
51289;BME280;37372;52.294;5.152;2023-09-19T07:38:23;100727.00;;;14.34;100.00
51289;BME280;37372;52.294;5.152;2023-09-19T07:40:50;100734.72;;;14.32;100.00
51289;BME280;37372;52.294;5.152;2023-09-19T07:43:15;100730.28;;;14.31;100.00
51289;BME280;37372;52.294;5.152;2023-09-19T07:45:41;100738.63;;;14.36;100.00
51289;BME280;37372;52.294;5.152;2023-09-19T07:48:07;100748.59;;;14.38;100.00
51289;BME280;37372;52.294;5.152;2023-09-19T07:50:39;100745.00;;;14.37;100.00
51289;BME280;37372;52.294;5.152;2023-09-19T07:53:05;100732.66;;;14.45;100.00
51289;BME280;37372;52.294;5.152;2023-09-19T07:55:30;100739.09;;;14.50;100.00
51289;BME280;37372;52.294;5.152;2023-09-19T07:57:56;100750.22;;;14.60;100.00
51289;BME280;37372;52.294;5.152;2023-09-19T08:00:22;100735.13;;;14.68;100.00
51289;BME280;37372;52.294;5.152;2023-09-19T08:02:47;100744.06;;;14.75;100.00
51289;BME280;37372;52.294;5.152;2023-09-19T08:05:17;100738.94;;;14.89;100.00
51289;BME280;37372;52.294;5.152;2023-09-19T08:07:44;100733.97;;;14.91;100.00
51289;BME280;37372;52.294;5.152;2023-09-19T08:10:14;100738.44;;;14.97;100.00
51289;BME280;37372;52.294;5.152;2023-09-19T08:12:44;100732.81;;;15.19;100.00
51289;BME280;37372;52.294;5.152;2023-09-19T08:15:17;100731.25;;;15.28;100.00
51289;BME280;37372;52.294;5.152;2023-09-19T08:17:42;100733.47;;;15.31;100.00
51289;BME280;37372;52.294;5.152;2023-09-19T08:20:09;100738.44;;;15.29;100.00
51289;BME280;37372;52.294;5.152;2023-09-19T08:22:43;100731.03;;;15.35;100.00
51289;BME280;37372;52.294;5.152;2023-09-19T08:25:09;100712.78;;;15.39;100.00
51289;BME280;37372;52.294;5.152;2023-09-19T08:27:34;100734.63;;;15.35;100.00
51289;BME280;37372;52.294;5.152;2023-09-19T08:30:01;100717.56;;;15.49;100.00
51289;BME280;37372;52.294;5.152;2023-09-19T08:32:28;100720.38;;;15.54;100.00
51289;BME280;37372;52.294;5.152;2023-09-19T08:34:53;100723.09;;;15.49;100.00
51289;BME280;37372;52.294;5.152;2023-09-19T08:37:19;100712.63;;;15.56;100.00
51289;BME280;37372;52.294;5.152;2023-09-19T08:39:44;100708.16;;;15.50;100.00
51289;BME280;37372;52.294;5.152;2023-09-19T08:42:10;100722.31;;;15.58;100.00
51289;BME280;37372;52.294;5.152;2023-09-19T08:44:37;100716.53;;;15.60;100.00
51289;BME280;37372;52.294;5.152;2023-09-19T08:47:10;100716.78;;;15.58;100.00
51289;BME280;37372;52.294;5.152;2023-09-19T08:49:54;100724.34;;;15.68;100.00
51289;BME280;37372;52.294;5.152;2023-09-19T08:52:25;100726.91;;;15.80;100.00
51289;BME280;37372;52.294;5.152;2023-09-19T08:54:56;100730.28;;;15.92;100.00
51289;BME280;37372;52.294;5.152;2023-09-19T08:57:25;100731.44;;;16.01;100.00
51289;BME280;37372;52.294;5.152;2023-09-19T08:59:55;100741.72;;;16.11;100.00
51289;BME280;37372;52.294;5.152;2023-09-19T09:02:21;100740.09;;;16.20;100.00
51289;BME280;37372;52.294;5.152;2023-09-19T09:04:49;100732.34;;;16.22;100.00
51289;BME280;37372;52.294;5.152;2023-09-19T09:07:16;100731.25;;;16.18;100.00
51289;BME280;37372;52.294;5.152;2023-09-19T09:09:42;100726.19;;;16.10;100.00
51289;BME280;37372;52.294;5.152;2023-09-19T09:12:13;100742.31;;;16.18;100.00
51289;BME280;37372;52.294;5.152;2023-09-19T09:14:47;100738.22;;;16.31;100.00
51289;BME280;37372;52.294;5.152;2023-09-19T09:17:17;100728.78;;;16.32;100.00
51289;BME280;37372;52.294;5.152;2023-09-19T09:19:46;100736.22;;;16.21;100.00
51289;BME280;37372;52.294;5.152;2023-09-19T09:22:12;100726.03;;;16.32;100.00
51289;BME280;37372;52.294;5.152;2023-09-19T09:24:55;100722.19;;;16.48;100.00
51289;BME280;37372;52.294;5.152;2023-09-19T09:27:23;100720.25;;;16.43;100.00
51289;BME280;37372;52.294;5.152;2023-09-19T09:29:50;100716.66;;;16.53;100.00
51289;BME280;37372;52.294;5.152;2023-09-19T09:32:26;100722.53;;;16.72;100.00
51289;BME280;37372;52.294;5.152;2023-09-19T09:34:58;100713.34;;;16.51;100.00
51289;BME280;37372;52.294;5.152;2023-09-19T09:37:25;100726.34;;;16.50;100.00
51289;BME280;37372;52.294;5.152;2023-09-19T09:40:02;100727.97;;;16.31;100.00
51289;BME280;37372;52.294;5.152;2023-09-19T09:42:40;100727.88;;;16.06;100.00
51289;BME280;37372;52.294;5.152;2023-09-19T09:47:44;100721.16;;;15.96;100.00
51289;BME280;37372;52.294;5.152;2023-09-19T09:50:34;100712.69;;;16.18;100.00
51289;BME280;37372;52.294;5.152;2023-09-19T09:53:26;100718.00;;;16.35;100.00
51289;BME280;37372;52.294;5.152;2023-09-19T09:58:25;100710.59;;;16.56;100.00
51289;BME280;37372;52.294;5.152;2023-09-19T10:00:58;100711.94;;;16.48;100.00
51289;BME280;37372;52.294;5.152;2023-09-19T10:03:32;100714.53;;;16.75;100.00
51289;BME280;37372;52.294;5.152;2023-09-19T10:06:00;100704.28;;;17.01;100.00
51289;BME280;37372;52.294;5.152;2023-09-19T10:08:27;100704.03;;;17.13;99.11
51289;BME280;37372;52.294;5.152;2023-09-19T10:10:56;100702.31;;;17.38;98.60
51289;BME280;37372;52.294;5.152;2023-09-19T10:13:30;100692.91;;;17.28;97.97
51289;BME280;37372;52.294;5.152;2023-09-19T10:15:58;100692.31;;;17.37;96.98
51289;BME280;37372;52.294;5.152;2023-09-19T10:18:25;100674.56;;;17.48;96.62
51289;BME280;37372;52.294;5.152;2023-09-19T10:20:53;100683.75;;;17.28;96.26
51289;BME280;37372;52.294;5.152;2023-09-19T10:23:21;100671.84;;;17.27;97.57
51289;BME280;37372;52.294;5.152;2023-09-19T10:25:51;100675.16;;;17.29;97.94
51289;BME280;37372;52.294;5.152;2023-09-19T10:28:18;100661.56;;;17.18;96.69
51289;BME280;37372;52.294;5.152;2023-09-19T10:30:50;100660.47;;;17.24;97.36
51289;BME280;37372;52.294;5.152;2023-09-19T10:33:21;100661.19;;;17.75;96.19
51289;BME280;37372;52.294;5.152;2023-09-19T10:35:50;100662.81;;;17.86;94.66
51289;BME280;37372;52.294;5.152;2023-09-19T10:38:23;100655.50;;;18.06;93.37
51289;BME280;37372;52.294;5.152;2023-09-19T10:40:50;100653.44;;;18.27;92.41
51289;BME280;37372;52.294;5.152;2023-09-19T10:43:18;100658.69;;;18.33;90.55
51289;BME280;37372;52.294;5.152;2023-09-19T10:45:45;100642.78;;;18.44;89.38
51289;BME280;37372;52.294;5.152;2023-09-19T10:48:15;100643.63;;;18.45;91.32
51289;BME280;37372;52.294;5.152;2023-09-19T10:50:46;100644.72;;;18.88;88.32
51289;BME280;37372;52.294;5.152;2023-09-19T10:53:14;100652.38;;;19.01;88.88
51289;BME280;37372;52.294;5.152;2023-09-19T10:55:49;100630.75;;;19.22;87.60
51289;BME280;37372;52.294;5.152;2023-09-19T10:58:27;100639.94;;;18.93;89.17
51289;BME280;37372;52.294;5.152;2023-09-19T11:00:58;100642.19;;;18.86;87.14
51289;BME280;37372;52.294;5.152;2023-09-19T11:03:38;100648.66;;;18.82;87.47
51289;BME280;37372;52.294;5.152;2023-09-19T11:06:17;100630.94;;;18.73;85.83
51289;BME280;37372;52.294;5.152;2023-09-19T11:09:00;100639.50;;;18.81;86.03
51289;BME280;37372;52.294;5.152;2023-09-19T11:11:49;100650.28;;;18.88;87.17
51289;BME280;37372;52.294;5.152;2023-09-19T11:25:46;100627.78;;;18.45;89.79
51289;BME280;37372;52.294;5.152;2023-09-19T11:30:42;100628.25;;;18.18;90.64
51289;BME280;37372;52.294;5.152;2023-09-19T11:33:30;100616.34;;;18.52;89.44
51289;BME280;37372;52.294;5.152;2023-09-19T11:35:59;100635.34;;;18.74;88.42
51289;BME280;37372;52.294;5.152;2023-09-19T11:43:49;100610.63;;;18.38;86.53
51289;BME280;37372;52.294;5.152;2023-09-19T11:46:16;100614.09;;;18.54;87.42
51289;BME280;37372;52.294;5.152;2023-09-19T11:48:48;100602.41;;;18.57;86.80
51289;BME280;37372;52.294;5.152;2023-09-19T11:51:24;100630.84;;;18.44;87.17
51289;BME280;37372;52.294;5.152;2023-09-19T11:53:57;100640.56;;;18.41;86.86
51289;BME280;37372;52.294;5.152;2023-09-19T11:56:25;100631.75;;;18.34;88.09
51289;BME280;37372;52.294;5.152;2023-09-19T11:58:54;100629.06;;;18.19;90.12
51289;BME280;37372;52.294;5.152;2023-09-19T12:01:30;100628.59;;;18.01;89.63
51289;BME280;37372;52.294;5.152;2023-09-19T12:03:58;100632.22;;;18.02;89.82
51289;BME280;37372;52.294;5.152;2023-09-19T12:06:25;100619.53;;;17.91;90.42
51289;BME280;37372;52.294;5.152;2023-09-19T12:08:51;100629.81;;;17.85;90.99
51289;BME280;37372;52.294;5.152;2023-09-19T12:11:21;100625.34;;;17.89;92.04
51289;BME280;37372;52.294;5.152;2023-09-19T12:13:48;100610.41;;;17.75;91.00
51289;BME280;37372;52.294;5.152;2023-09-19T12:16:15;100616.78;;;17.75;92.07
51289;BME280;37372;52.294;5.152;2023-09-19T12:18:42;100604.34;;;17.63;92.26
51289;BME280;37372;52.294;5.152;2023-09-19T12:21:28;100630.72;;;17.60;92.52
51289;BME280;37372;52.294;5.152;2023-09-19T12:24:06;100617.69;;;17.55;93.63
51289;BME280;37372;52.294;5.152;2023-09-19T12:26:43;100623.53;;;17.49;94.40
51289;BME280;37372;52.294;5.152;2023-09-19T12:29:28;100602.41;;;17.58;95.02
51289;BME280;37372;52.294;5.152;2023-09-19T12:31:57;100632.38;;;17.61;94.01
51289;BME280;37372;52.294;5.152;2023-09-19T12:34:27;100620.69;;;17.74;94.53
51289;BME280;37372;52.294;5.152;2023-09-19T12:40:05;100624.16;;;18.00;94.25
51289;BME280;37372;52.294;5.152;2023-09-19T12:42:42;100624.06;;;18.21;91.96
51289;BME280;37372;52.294;5.152;2023-09-19T12:45:08;100624.34;;;18.58;92.14
51289;BME280;37372;52.294;5.152;2023-09-19T12:47:34;100625.47;;;18.91;90.21
51289;BME280;37372;52.294;5.152;2023-09-19T12:50:14;100617.75;;;18.88;89.39
51289;BME280;37372;52.294;5.152;2023-09-19T12:52:43;100612.53;;;18.82;88.78
51289;BME280;37372;52.294;5.152;2023-09-19T12:55:37;100618.63;;;18.84;88.90
51289;BME280;37372;52.294;5.152;2023-09-19T13:00:40;100621.50;;;18.29;91.43
51289;BME280;37372;52.294;5.152;2023-09-19T13:03:25;100620.16;;;18.22;92.40
51289;BME280;37372;52.294;5.152;2023-09-19T13:05:56;100601.19;;;18.34;91.53
51289;BME280;37372;52.294;5.152;2023-09-19T13:08:28;100613.75;;;18.26;92.40
51289;BME280;37372;52.294;5.152;2023-09-19T13:11:14;100627.47;;;18.07;93.92
51289;BME280;37372;52.294;5.152;2023-09-19T13:14:13;100607.78;;;18.04;93.41
51289;BME280;37372;52.294;5.152;2023-09-19T13:19:49;100616.28;;;18.23;92.33
51289;BME280;37372;52.294;5.152;2023-09-19T13:22:43;100610.13;;;18.26;93.14
51289;BME280;37372;52.294;5.152;2023-09-19T13:25:18;100606.41;;;18.40;93.23
51289;BME280;37372;52.294;5.152;2023-09-19T13:27:48;100601.97;;;18.39;92.38
51289;BME280;37372;52.294;5.152;2023-09-19T13:30:16;100606.75;;;18.34;93.90
51289;BME280;37372;52.294;5.152;2023-09-19T13:32:42;100606.88;;;18.13;95.04
51289;BME280;37372;52.294;5.152;2023-09-19T13:35:09;100629.44;;;17.97;95.65